Bernardine C — WDI7204 — position and weather

sailwx.info

Track history (hours):
 
Tides and Currents Weather Stations Pressure Air Temp Water Temp Dewpoint Dewpoint Depression Visibility Wind Speed Wind Dir Waves Ship Positions

Bernardine C

Owner: Curtin Maritime Corp, Long Beach, CA. More information available from US FCC via Universal Licensing System and Coast Guard Vessel Documentation Center.

Last reported at 2018-Jul-18 12:00 UTC. Time now 2018-Jul-18 12:09 UTC.
Position N 33°46' W 118°13'.

Length 15 m; draft 1.7 m.

Type: . MMSI: 367726390.

Date/timePositionNaut miles runAvg speedWind from/ knotsBaromVisibWave heightAir tempDewpointWater temp
2018-Jul-18 12:00N 33°46' W 118°13'0 0.0
2018-Jul-18 11:30N 33°46' W 118°13'0 0.0
2018-Jul-18 10:30N 33°46' W 118°13'0 0.0
2018-Jul-18 10:00N 33°46' W 118°13'0 0.0
2018-Jul-18 09:30N 33°46' W 118°13'0 0.0
2018-Jul-18 08:59N 33°46' W 118°13'0 0.0
2018-Jul-18 08:30N 33°46' W 118°13'0 0.0
2018-Jul-18 08:00N 33°46' W 118°13'0 0.0
2018-Jul-18 07:31N 33°46' W 118°13'0 0.0
2018-Jul-18 07:00N 33°46' W 118°13'0 0.0
2018-Jul-18 06:30N 33°46' W 118°13'0 0.0
2018-Jul-18 05:58N 33°46' W 118°13'0 0.0
2018-Jul-18 05:30N 33°46' W 118°13'0 0.0
2018-Jul-18 05:00N 33°46' W 118°13'0 0.0
2018-Jul-18 04:30N 33°46' W 118°13'0 0.0
2018-Jul-18 04:00N 33°46' W 118°13'0 0.0
2018-Jul-18 03:30N 33°46' W 118°13'0 0.0
2018-Jul-18 03:00N 33°46' W 118°13'0 0.0
2018-Jul-18 02:30N 33°46' W 118°13'0 0.0
2018-Jul-18 02:00N 33°46' W 118°13'0 0.0
2018-Jul-18 01:30N 33°46' W 118°13'0 0.0
2018-Jul-18 01:00N 33°46' W 118°13'0 0.0
2018-Jul-18 00:30N 33°46' W 118°13'0 0.0
2018-Jul-18 00:00N 33°46' W 118°13'0 0.0
2018-Jul-17 23:30N 33°46' W 118°13'0 0.0
2018-Jul-17 23:00N 33°46' W 118°13'0 0.0
2018-Jul-17 22:30N 33°46' W 118°13'0 0.0
2018-Jul-17 22:00N 33°46' W 118°13'0 0.0
2018-Jul-17 21:30N 33°46' W 118°13'0 0.0
2018-Jul-17 20:59N 33°46' W 118°13'0 0.0
2018-Jul-17 20:30N 33°46' W 118°13'0 0.0
2018-Jul-17 20:00N 33°46' W 118°13'0 0.0
2018-Jul-17 19:30N 33°46' W 118°13'0 0.0
2018-Jul-17 19:00N 33°46' W 118°13'0 0.0
2018-Jul-17 18:30N 33°46' W 118°13'0 0.0
2018-Jul-17 18:00N 33°46' W 118°13'0 0.0
2018-Jul-17 17:30N 33°46' W 118°13'0 0.0
2018-Jul-17 17:00N 33°46' W 118°13'0 0.0
2018-Jul-17 16:30N 33°46' W 118°13'0 0.0
2018-Jul-17 16:00N 33°46' W 118°13'0 0.0
2018-Jul-17 15:30N 33°46' W 118°13'0 0.0
2018-Jul-17 15:00N 33°46' W 118°13'0 0.0
2018-Jul-16 23:09N 33°46' W 118°13'0 0.0
2018-Jul-16 20:46N 33°46' W 118°13'0 0.0
2018-Jul-16 20:30N 33°46' W 118°13'0 0.0
2018-Jul-16 20:00N 33°46' W 118°13'0 0.0
2018-Jul-14 19:52N 33°46' W 118°13'1 1.5
2018-Jul-14 19:31N 33°46' W 118°13'3 6.8
2018-Jul-14 19:01N 33°43' W 118°15'1 2.7
2018-Jul-14 18:30N 33°43' W 118°17'0 0.0
2018-Jul-14 18:00N 33°43' W 118°17'0 0.7
2018-Jul-14 17:30N 33°43' W 118°16'0 0.4
2018-Jul-14 17:00N 33°43' W 118°16'3 5.7
2018-Jul-14 16:30N 33°44' W 118°13'2 4.2
2018-Jul-14 16:00N 33°46' W 118°13'0 0.0
2018-Jul-13 16:55N 33°46' W 118°13'0 0.0
2018-Jul-13 16:29N 33°46' W 118°13'0 0.0
2018-Jul-13 16:01N 33°46' W 118°13'0 0.0
2018-Jul-13 15:31N 33°46' W 118°13'0 0.0
2018-Jul-13 15:00N 33°46' W 118°13'  
Track history (hours):
 
Tides and Currents Weather Stations Pressure Air Temp Water Temp Dewpoint Dewpoint Depression Visibility Wind Speed Wind Dir Waves Ship Positions

Bernardine C

Owner: Curtin Maritime Corp, Long Beach, CA. More information available from US FCC via Universal Licensing System and Coast Guard Vessel Documentation Center.

Last reported at 2018-Jul-18 12:00 UTC. Time now 2018-Jul-18 12:09 UTC.
Position N 33°46' W 118°13'.

Length 15 m; draft 1.7 m.

Type: . MMSI: 367726390.

Date/timePositionNaut miles runAvg speedWind from/ knotsBaromVisibWave heightAir tempDewpointWater temp
2018-Jul-18 12:00N 33°46' W 118°13'0 0.0
2018-Jul-18 11:30N 33°46' W 118°13'0 0.0
2018-Jul-18 10:30N 33°46' W 118°13'0 0.0
2018-Jul-18 10:00N 33°46' W 118°13'0 0.0
2018-Jul-18 09:30N 33°46' W 118°13'0 0.0
2018-Jul-18 08:59N 33°46' W 118°13'0 0.0
2018-Jul-18 08:30N 33°46' W 118°13'0 0.0
2018-Jul-18 08:00N 33°46' W 118°13'0 0.0
2018-Jul-18 07:31N 33°46' W 118°13'0 0.0
2018-Jul-18 07:00N 33°46' W 118°13'0 0.0
2018-Jul-18 06:30N 33°46' W 118°13'0 0.0
2018-Jul-18 05:58N 33°46' W 118°13'0 0.0
2018-Jul-18 05:30N 33°46' W 118°13'0 0.0
2018-Jul-18 05:00N 33°46' W 118°13'0 0.0
2018-Jul-18 04:30N 33°46' W 118°13'0 0.0
2018-Jul-18 04:00N 33°46' W 118°13'0 0.0
2018-Jul-18 03:30N 33°46' W 118°13'0 0.0
2018-Jul-18 03:00N 33°46' W 118°13'0 0.0
2018-Jul-18 02:30N 33°46' W 118°13'0 0.0
2018-Jul-18 02:00N 33°46' W 118°13'0 0.0
2018-Jul-18 01:30N 33°46' W 118°13'0 0.0
2018-Jul-18 01:00N 33°46' W 118°13'0 0.0
2018-Jul-18 00:30N 33°46' W 118°13'0 0.0
2018-Jul-18 00:00N 33°46' W 118°13'0 0.0
2018-Jul-17 23:30N 33°46' W 118°13'0 0.0
2018-Jul-17 23:00N 33°46' W 118°13'0 0.0
2018-Jul-17 22:30N 33°46' W 118°13'0 0.0
2018-Jul-17 22:00N 33°46' W 118°13'0 0.0
2018-Jul-17 21:30N 33°46' W 118°13'0 0.0
2018-Jul-17 20:59N 33°46' W 118°13'0 0.0
2018-Jul-17 20:30N 33°46' W 118°13'0 0.0
2018-Jul-17 20:00N 33°46' W 118°13'0 0.0
2018-Jul-17 19:30N 33°46' W 118°13'0 0.0
2018-Jul-17 19:00N 33°46' W 118°13'0 0.0
2018-Jul-17 18:30N 33°46' W 118°13'0 0.0
2018-Jul-17 18:00N 33°46' W 118°13'0 0.0
2018-Jul-17 17:30N 33°46' W 118°13'0 0.0
2018-Jul-17 17:00N 33°46' W 118°13'0 0.0
2018-Jul-17 16:30N 33°46' W 118°13'0 0.0
2018-Jul-17 16:00N 33°46' W 118°13'0 0.0
2018-Jul-17 15:30N 33°46' W 118°13'0 0.0
2018-Jul-17 15:00N 33°46' W 118°13'0 0.0
2018-Jul-16 23:09N 33°46' W 118°13'0 0.0
2018-Jul-16 20:46N 33°46' W 118°13'0 0.0
2018-Jul-16 20:30N 33°46' W 118°13'0 0.0
2018-Jul-16 20:00N 33°46' W 118°13'0 0.0
2018-Jul-14 19:52N 33°46' W 118°13'1 1.5
2018-Jul-14 19:31N 33°46' W 118°13'3 6.8
2018-Jul-14 19:01N 33°43' W 118°15'1 2.7
2018-Jul-14 18:30N 33°43' W 118°17'0 0.0
2018-Jul-14 18:00N 33°43' W 118°17'0 0.7
2018-Jul-14 17:30N 33°43' W 118°16'0 0.4
2018-Jul-14 17:00N 33°43' W 118°16'3 5.7
2018-Jul-14 16:30N 33°44' W 118°13'2 4.2
2018-Jul-14 16:00N 33°46' W 118°13'0 0.0
2018-Jul-13 16:55N 33°46' W 118°13'0 0.0
2018-Jul-13 16:29N 33°46' W 118°13'0 0.0
2018-Jul-13 16:01N 33°46' W 118°13'0 0.0
2018-Jul-13 15:31N 33°46' W 118°13'0 0.0
2018-Jul-13 15:00N 33°46' W 118°13'  

Dump ship's entire track history